Data for 06/02/2007

Time Sea-Level Adjusted Pressure Absolute Pressure Temperature Relative Humidity Dew Point   
(mb) (inHg) (mb) (inHg) (C) (F) (%) (C) (F)
00:05 1018 30.06 847 25.01 12.9 55.2 70 7.6 45.8
00:10 1018 30.06 847 25.01 12.8 55.1 69 7.4 45.3
00:15 1018 30.06 847 25.01 12.7 54.9 70 7.5 45.4
00:20 1018 30.06 847 25.01 12.9 55.1 69 7.3 45.1
00:25 1018 30.06 847 25.01 12.7 54.9 70 7.5 45.5
00:30 1018 30.06 847 25.01 12.7 54.8 71 7.6 45.6
00:35 1018 30.06 847 25.01 12.6 54.6 71 7.6 45.6
00:40 1018 30.06 847 25.01 12.3 54.1 70 7 44.5
00:45 1018 30.06 847 25.01 12 53.6 71 7 44.6
00:50 1018 30.06 848 25.04 12 53.7 72 7.1 44.8
00:55 1018 30.06 848 25.04 12.1 53.7 70 6.9 44.4
01:00 1018 30.06 848 25.04 12 53.6 72 7.1 44.7
01:05 1018 30.06 848 25.04 12.1 53.8 70 6.8 44.3
01:10 1018 30.06 848 25.04 12 53.6 70 6.8 44.3
01:15 1018 30.06 848 25.04 12 53.7 70 6.8 44.2
01:20 1018 30.06 848 25.04 11.8 53.2 72 6.9 44.3
01:25 1019 30.09 848 25.04 11.6 52.9 71 6.6 44
01:30 1019 30.09 848 25.04 11.5 52.7 71 6.5 43.7
01:35 1019 30.09 848 25.04 11.3 52.4 72 6.4 43.5
01:40 1018 30.06 848 25.04 11.2 52.2 73 6.5 43.8
01:45 1018 30.06 848 25.04 11 51.9 75 6.9 44.4
01:50 1019 30.09 848 25.04 11.1 51.9 75 6.7 44.1
01:55 1019 30.09 848 25.04 11 51.7 74 6.6 43.8
02:00 1019 30.09 848 25.04 11.1 51.9 72 6.3 43.4
02:05 1019 30.09 848 25.04 11.1 52 71 6 42.9
02:10 1019 30.09 848 25.04 11.3 52.4 67 5.5 41.8
02:15 1019 30.09 848 25.04 11.4 52.5 64 4.9 40.8
02:20 1019 30.09 848 25.04 11.6 52.8 60 4.2 39.6
02:25 1019 30.09 848 25.04 11.9 53.4 60 4.5 40.1
02:30 1019 30.09 848 25.04 12.1 53.8 64 5.6 42.1
02:35 1019 30.09 848 25.04 12.2 53.9 67 6.2 43.1
02:40 1019 30.09 848 25.04 11.9 53.4 67 6 42.7
02:45 1019 30.09 848 25.04 11.5 52.6 67 5.5 41.9
02:50 1019 30.09 848 25.04 11.2 52.2 71 6.1 43
02:55 1019 30.09 848 25.04 11 51.9 73 6.3 43.4
03:00 1019 30.09 848 25.04 11 51.7 74 6.4 43.6
03:05 1019 30.09 848 25.04 10.9 51.5 72 6 42.8
03:10 1019 30.09 848 25.04 10.8 51.4 69 5.3 41.5
03:15 1019 30.09 848 25.04 10.7 51.2 69 5.2 41.4
03:20 1019 30.09 848 25.04 10.6 51 66 4.5 40.1
03:25 1019 30.09 848 25.04 10.6 51 68 4.9 40.8
03:30 1019 30.09 848 25.04 10.6 51 70 5.4 41.7
03:35 1019 30.09 848 25.04 10.4 50.7 70 5.2 41.4
03:40 1019 30.09 848 25.04 10.2 50.3 72 5.4 41.7
03:45 1019 30.09 848 25.04 10 50 73 5.3 41.6
03:50 1019 30.09 848 25.04 9.8 49.7 72 5.1 41.2
03:55 1019 30.09 848 25.04 9.8 49.6 70 4.7 40.5
04:00 1019 30.09 848 25.04 9.7 49.5 71 4.8 40.6
04:05 1019 30.09 848 25.04 9.8 49.6 68 4.2 39.6
04:10 1019 30.09 848 25.04 10.1 50.1 66 4 39.2
04:15 1019 30.09 848 25.04 10 50.1 66 4 39.3
04:20 1019 30.09 848 25.04 9.7 49.5 71 4.7 40.4
04:25 1019 30.09 848 25.04 9.7 49.4 69 4.4 39.9
04:30 1019 30.09 848 25.04 9.5 49 68 3.8 38.9
04:35 1019 30.09 848 25.04 9.5 49.1 66 3.5 38.4
04:40 1019 30.09 848 25.04 9.6 49.3 62 2.7 36.9
04:45 1019 30.09 848 25.04 9.8 49.6 62 2.9 37.3
04:50 1019 30.09 848 25.04 9.7 49.5 61 2.6 36.8
04:55 1019 30.09 848 25.04 9.8 49.6 61 2.6 36.8
05:00 1019 30.09 848 25.04 9.7 49.5 62 2.8 37.1
05:05 1019 30.09 848 25.04 9.5 49.1 63 2.8 37.1
05:10 1019 30.09 848 25.04 9.3 48.8 64 2.9 37.2
05:15 1019 30.09 848 25.04 9.1 48.4 64 2.7 36.8
05:20 1019 30.09 848 25.04 9.3 48.7 63 2.8 37
05:25 1019 30.09 848 25.04 9.5 49.1 66 3.4 38.2
05:30 1019 30.09 848 25.04 9.4 48.8 68 3.8 38.9
05:35 1019 30.09 848 25.04 9.2 48.6 68 3.7 38.6
05:40 1019 30.09 848 25.04 9.2 48.5 68 3.7 38.7
05:45 1019 30.09 848 25.04 9 48.3 69 3.7 38.7
05:50 1019 30.09 848 25.04 9.1 48.4 69 3.7 38.7
05:55 1019 30.09 848 25.04 9.1 48.4 69 3.7 38.6
06:00 1019 30.09 848 25.04 9 48.2 68 3.5 38.4
06:05 1019 30.09 849 25.07 9 48.3 69 3.6 38.5
06:10 1019 30.09 849 25.07 9.1 48.4 68 3.5 38.2
06:15 1019 30.09 849 25.07 9.2 48.6 67 3.4 38.2
06:20 1019 30.09 849 25.07 9.4 48.9 67 3.6 38.5
06:25 1019 30.09 849 25.07 9.6 49.4 66 3.6 38.5
06:30 1019 30.09 849 25.07 9.9 49.8 65 3.6 38.5
06:35 1020 30.12 849 25.07 10.1 50.2 64 3.6 38.5
06:40 1020 30.12 849 25.07 10.2 50.4 64 3.8 38.9
06:45 1020 30.12 849 25.07 10.3 50.6 64 4 39.1
06:50 1020 30.12 849 25.07 10.4 50.7 64 4 39.3
06:55 1020 30.12 849 25.07 10.7 51.3 63 4 39.3
07:00 1020 30.12 849 25.07 11 51.7 62 3.9 39.1
07:05 1020 30.12 849 25.07 11.1 52 61 3.9 39.1
07:10 1020 30.12 849 25.07 11.3 52.3 61 4.1 39.4
07:15 1020 30.12 849 25.07 11.4 52.5 61 4.1 39.4
07:20 1020 30.12 849 25.07 11.6 53 60 4.1 39.4
07:25 1020 30.12 849 25.07 12.2 53.9 57 4 39.1
07:30 1020 30.12 849 25.07 12.4 54.3 57 4.2 39.5
07:35 1020 30.12 849 25.07 12.4 54.3 58 4.4 40
07:40 1020 30.12 849 25.07 12.3 54.2 59 4.5 40.1
07:45 1020 30.12 849 25.07 12.5 54.4 59 4.6 40.3
07:50 1020 30.12 849 25.07 12.7 54.9 58 4.8 40.6
07:55 1020 30.12 849 25.07 13.3 56 56 4.8 40.7
08:00 1020 30.12 849 25.07 14 57.1 55 5.2 41.3
08:05 1020 30.12 849 25.07 14.7 58.5 52 5.2 41.3
08:10 1020 30.12 849 25.07 14.8 58.7 52 5.3 41.5
08:15 1020 30.12 849 25.07 15.2 59.4 52 5.5 41.9
08:20 1020 30.12 849 25.07 15.7 60.2 48 4.8 40.7
08:25 1020 30.12 849 25.07 16.1 60.9 49 5.4 41.7
08:30 1020 30.12 849 25.07 16.3 61.3 46 4.9 40.8
08:35 1020 30.12 849 25.07 16.7 62 45 4.9 40.8
08:40 1020 30.12 849 25.07 17 62.5 45 5.1 41.2
08:45 1020 30.12 849 25.07 17.6 63.7 45 5.5 41.9
08:50 1020 30.12 849 25.07 18.1 64.6 43 5.5 41.8
08:55 1020 30.12 849 25.07 18.5 65.3 41 5 41
09:00 1020 30.12 849 25.07 18 64.4 40 4.4 39.9
09:05 1020 30.12 849 25.07 18.2 64.7 40 4.4 39.9
09:10 1020 30.12 849 25.07 18.9 66 36 3.7 38.7
09:15 1020 30.12 849 25.07 19.5 67.1 35 3.8 38.9
09:20 1020 30.12 849 25.07 19.5 67.2 35 4 39.2
09:25 1020 30.12 849 25.07 18.5 65.2 38 3.9 39
09:30 1020 30.12 849 25.07 19 66.1 37 4.2 39.5
09:35 1020 30.12 849 25.07 18.8 65.8 40 4.9 40.9
09:40 1020 30.12 849 25.07 19.4 66.9 37 4.6 40.4
09:45 1020 30.12 849 25.07 20.2 68.3 35 4.4 39.9
09:50 1020 30.12 849 25.07 20.4 68.8 35 4.5 40.1
09:55 1020 30.12 849 25.07 20.8 69.4 34 4.4 40
10:00 1020 30.12 849 25.07 20 68 35 4.4 39.9
10:05 1020 30.12 849 25.07 20.3 68.5 33 3.6 38.4
10:10 1020 30.12 849 25.07 20.7 69.3 32 3.7 38.6
10:15 1020 30.12 849 25.07 20 68 35 4.3 39.7
10:20 1020 30.12 849 25.07 20.3 68.6 32 3.2 37.8
10:25 1020 30.12 849 25.07 20.8 69.4 33 4.1 39.5
10:30 1020 30.12 849 25.07 21 69.8 33 4.3 39.8
10:35 1020 30.12 849 25.07 21.7 71 30 3.6 38.4
10:40 1020 30.12 849 25.07 21.6 70.9 32 4.3 39.7
10:45 1020 30.12 849 25.07 21.5 70.6 31 3.9 38.9
10:50 1020 30.12 849 25.07 21.9 71.5 31 4.2 39.6
10:55 1020 30.12 849 25.07 22.3 72.2 29 3.9 39
11:00 1020 30.12 849 25.07 22.3 72.2 31 4.6 40.2
11:05 1020 30.12 849 25.07 22.3 72.1 30 4.2 39.6
11:10 1020 30.12 849 25.07 22.6 72.7 29 4.1 39.3
11:15 1020 30.12 849 25.07 22.5 72.5 31 4.8 40.7
11:20 1020 30.12 849 25.07 21.9 71.4 33 4.9 40.8
11:25 1020 30.12 849 25.07 21.9 71.3 33 5.3 41.5
11:30 1020 30.12 849 25.07 22 71.6 32 4.6 40.3
11:35 1020 30.12 849 25.07 22.5 72.5 32 5 41
11:40 1020 30.12 849 25.07 22.6 72.7 32 5.2 41.3
11:45 1020 30.12 849 25.07 22.9 73.3 30 4.9 40.8
11:50 1020 30.12 849 25.07 23 73.4 29 4.2 39.5
11:55 1020 30.12 849 25.07 23.4 74.2 29 4.8 40.7
12:00 1020 30.12 849 25.07 23.1 73.5 28 4 39.3
12:05 1020 30.12 849 25.07 23.6 74.5 28 4.4 40
12:10 1020 30.12 849 25.07 23.8 74.8 26 3.3 37.9
12:15 1020 30.12 849 25.07 24 75.2 25 2.8 37.1
12:20 1020 30.12 849 25.07 24.2 75.5 26 3.8 38.9
12:25 1020 30.12 849 25.07 24 75.2 26 3.4 38.2
12:30 1020 30.12 849 25.07 24.6 76.3 24 3.2 37.7
12:35 1020 30.12 849 25.07 24.7 76.4 25 3.6 38.4
12:40 1020 30.12 849 25.07 24.7 76.5 25 3.5 38.3
12:45 1020 30.12 849 25.07 24.5 76.2 25 3.3 38
12:50 1020 30.12 849 25.07 25.2 77.4 24 3.5 38.3
12:55 1020 30.12 849 25.07 25.4 77.7 24 3.6 38.6
13:00 1020 30.12 849 25.07 25.3 77.6 26 4.5 40
13:05 1020 30.12 849 25.07 24.7 76.5 27 4.4 40
13:10 1020 30.12 849 25.07 24.1 75.5 26 3.6 38.4
13:15 1020 30.12 849 25.07 25 77 25 3.9 39
13:20 1020 30.12 849 25.07 25.3 77.5 25 4 39.1
13:25 1020 30.12 849 25.07 26 78.7 23 3.7 38.7
13:30 1020 30.12 849 25.07 26.3 79.3 23 3.5 38.3
13:35 1019 30.09 849 25.07 26.1 79 22 3.1 37.5
13:40 1019 30.09 849 25.07 25.7 78.3 23 3.6 38.5
13:45 1019 30.09 849 25.07 25.7 78.3 22 2.6 36.7
13:50 1019 30.09 849 25.07 26.2 79.2 22 3.1 37.6
13:55 1019 30.09 849 25.07 26 78.9 22 2.6 36.7
14:00 1019 30.09 849 25.07 26 78.7 23 3.6 38.5
14:05 1019 30.09 849 25.07 25.9 78.7 22 2.7 36.8
14:10 1019 30.09 849 25.07 24.9 76.9 24 3.1 37.6
14:15 1019 30.09 849 25.07 25.6 78.2 23 3.4 38.2
14:20 1019 30.09 849 25.07 25.8 78.4 23 3.3 38
14:25 1019 30.09 848 25.04 26.4 79.4 21 2.5 36.4
14:30 1019 30.09 848 25.04 25.4 77.7 21 1.8 35.2
14:35 1019 30.09 848 25.04 24.6 76.3 21 1.4 34.5
14:40 1019 30.09 848 25.04 24.9 76.8 23 2.3 36.2
14:45 1019 30.09 848 25.04 25.9 78.7 22 2.7 36.8
14:50 1019 30.09 848 25.04 26.4 79.4 21 2.8 37
14:55 1019 30.09 848 25.04 26.3 79.4 20 2.1 35.8
15:00 1019 30.09 848 25.04 26 78.8 21 2.5 36.5
15:05 1019 30.09 848 25.04 26.1 78.9 17 -0.2 31.6
15:10 1019 30.09 848 25.04 26.1 79 17 -0.4 31.2
15:15 1019 30.09 848 25.04 26.2 79.1 19 1.2 34.2
15:20 1019 30.09 848 25.04 26.1 78.9 18 0.5 33
15:25 1019 30.09 848 25.04 26.7 80 18 0.9 33.7
15:30 1019 30.09 848 25.04 26.7 80.1 19 1.8 35.2
15:35 1019 30.09 848 25.04 26.8 80.2 19 1.2 34.1
15:40 1019 30.09 848 25.04 26.8 80.3 18 1.1 34.1
15:45 1019 30.09 848 25.04 26.7 80.1 18 0.7 33.2
15:50 1019 30.09 848 25.04 26.7 80.1 19 1.3 34.4
15:55 1019 30.09 848 25.04 26.1 78.9 18 0.5 32.9
16:00 1019 30.09 848 25.04 25.5 77.9 19 0.2 32.3
16:05 1019 30.09 848 25.04 25.8 78.5 16 -1.9 28.6
16:10 1019 30.09 848 25.04 25.8 78.4 19 0.5 32.8
16:15 1019 30.09 848 25.04 25.7 78.3 18 -0.3 31.5
16:20 1018 30.06 848 25.04 25.7 78.3 19 0.7 33.2
16:25 1018 30.06 848 25.04 25.8 78.4 18 -0.2 31.7
16:30 1018 30.06 848 25.04 25.6 78.1 17 -0.7 30.7
16:35 1018 30.06 848 25.04 25.9 78.6 17 -0.8 30.6
16:40 1018 30.06 848 25.04 26.2 79.2 18 0.1 32.1
16:45 1018 30.06 848 25.04 26.2 79.1 16 -1.5 29.4
16:50 1018 30.06 848 25.04 26 78.7 16 -1.7 28.9
16:55 1018 30.06 848 25.04 25.6 78 16 -1.7 29
17:00 1018 30.06 848 25.04 26.1 79.1 16 -1.6 29.2
17:05 1018 30.06 847 25.01 26.9 80.4 15 -1.8 28.8
17:10 1018 30.06 847 25.01 27.7 81.8 14 -2.1 28.2
17:15 1018 30.06 847 25.01 27.4 81.3 15 -1.2 29.8
17:20 1018 30.06 847 25.01 25.9 78.6 16 -2 28.4
17:25 1018 30.06 847 25.01 25.6 78 16 -2.2 28.1
17:30 1018 30.06 847 25.01 26.5 79.7 15 -2 28.5
17:35 1018 30.06 847 25.01 27.1 80.7 15 -1.7 28.9
17:40 1018 30.06 847 25.01 26.6 79.9 15 -1.9 28.5
17:45 1018 30.06 847 25.01 25.5 77.9 16 -2.1 28.2
17:50 1018 30.06 847 25.01 25.8 78.4 15 -2.7 27.2
17:55 1018 30.06 847 25.01 26 78.8 15 -2.2 28
18:00 1018 30.06 847 25.01 25.6 78.1 15 -2.4 27.6
18:05 1018 30.06 847 25.01 25.5 77.9 16 -2 28.3
18:10 1018 30.06 847 25.01 25.5 77.9 15 -2.4 27.7
18:15 1018 30.06 847 25.01 24.9 76.8 16 -2.5 27.5
18:20 1018 30.06 847 25.01 25.2 77.3 16 -2.6 27.4
18:25 1018 30.06 847 25.01 25.4 77.7 16 -2.3 27.8
18:30 1018 30.06 847 25.01 25.2 77.3 16 -2.3 27.8
18:35 1018 30.06 847 25.01 25.4 77.6 16 -2 28.5
18:40 1018 30.06 847 25.01 25.7 78.2 17 -1 30.2
18:45 1018 30.06 847 25.01 25.1 77.2 16 -2.2 28
18:50 1018 30.06 847 25.01 24.9 76.8 18 -1 30.2
18:55 1018 30.06 847 25.01 25.5 77.9 17 -1.2 29.9
19:00 1018 30.06 847 25.01 25.6 78 16 -1.8 28.8
19:05 1018 30.06 847 25.01 25.2 77.3 16 -1.9 28.6
19:10 1018 30.06 847 25.01 24.7 76.5 17 -1.4 29.5
19:15 1018 30.06 847 25.01 24.5 76 18 -1.2 29.8
19:20 1018 30.06 848 25.04 24.3 75.8 20 0.4 32.7
19:25 1018 30.06 848 25.04 24.1 75.4 22 1.2 34.2
19:30 1018 30.06 848 25.04 23.8 74.9 23 1.4 34.6
19:35 1018 30.06 848 25.04 23.7 74.7 23 1.5 34.7
19:40 1018 30.06 848 25.04 23.8 74.9 21 0.7 33.3
19:45 1018 30.06 848 25.04 23.8 74.8 21 0.2 32.4
19:50 1018 30.06 848 25.04 23.8 74.8 21 0.3 32.5
19:55 1019 30.09 848 25.04 23.7 74.7 21 0.2 32.4
20:00 1019 30.09 848 25.04 23.6 74.5 21 0.2 32.4
20:05 1019 30.09 848 25.04 23.5 74.3 22 0.9 33.7
20:10 1019 30.09 848 25.04 23 73.4 29 4.3 39.7
20:15 1019 30.09 848 25.04 22.2 72 33 5.5 41.9
20:20 1019 30.09 848 25.04 21.5 70.8 37 6.4 43.4
20:25 1019 30.09 848 25.04 21.1 70 37 6 42.8
20:30 1019 30.09 848 25.04 21 69.8 38 6.4 43.6
20:35 1019 30.09 848 25.04 20.8 69.4 40 6.7 44
20:40 1019 30.09 848 25.04 20.7 69.2 40 6.7 44.1
20:45 1019 30.09 848 25.04 20.4 68.8 40 6.7 44.1
20:50 1019 30.09 848 25.04 20.3 68.6 41 6.9 44.4
20:55 1019 30.09 848 25.04 20.2 68.3 43 7.2 44.9
21:00 1019 30.09 848 25.04 20 67.9 43 7.3 45.1
21:05 1019 30.09 848 25.04 19.8 67.7 44 7.4 45.3
21:10 1019 30.09 848 25.04 19.7 67.4 44 7.4 45.3
21:15 1019 30.09 848 25.04 19.6 67.3 44 7.1 44.8
21:20 1019 30.09 848 25.04 19.6 67.4 44 7.2 44.9
21:25 1019 30.09 848 25.04 19.6 67.3 44 7.2 45
21:30 1019 30.09 848 25.04 19.5 67 44 7.2 45
21:35 1019 30.09 849 25.07 19.4 66.9 45 7.2 44.9
21:40 1019 30.09 849 25.07 19.3 66.7 45 7.3 45.2
21:45 1020 30.12 849 25.07 19.1 66.4 45 7.2 44.9
21:50 1020 30.12 849 25.07 19.2 66.5 45 7.2 45
21:55 1020 30.12 849 25.07 19 66.2 48 7.8 46
22:00 1020 30.12 849 25.07 17.6 63.8 51 7.5 45.5
22:05 1020 30.12 849 25.07 17.1 62.8 53 7.5 45.5
22:10 1020 30.12 849 25.07 17.2 63 54 7.8 46.1
22:15 1020 30.12 849 25.07 17.5 63.4 50 7.1 44.7
22:20 1020 30.12 849 25.07 18.2 64.8 47 7 44.5
22:25 1020 30.12 849 25.07 18.5 65.2 47 7 44.6
22:30 1020 30.12 849 25.07 18.5 65.2 47 7 44.5
22:35 1020 30.12 849 25.07 18.3 65 48 7.1 44.9
22:40 1020 30.12 849 25.07 18.1 64.6 49 7.4 45.2
22:45 1020 30.12 849 25.07 17.2 62.9 55 8.2 46.7
22:50 1020 30.12 849 25.07 16.3 61.3 57 7.8 46.1
22:55 1020 30.12 849 25.07 15.9 60.6 58 7.6 45.7
23:00 1020 30.12 849 25.07 15.8 60.4 58 7.6 45.8
23:05 1020 30.12 849 25.07 15.6 60.2 58 7.6 45.6
23:10 1020 30.12 849 25.07 15.5 60 59 7.6 45.7
23:15 1020 30.12 849 25.07 15.4 59.8 59 7.5 45.4
23:20 1020 30.12 849 25.07 15.6 60.1 57 7.3 45.1
23:25 1020 30.12 849 25.07 15.8 60.4 56 7.2 44.9
23:30 1020 30.12 849 25.07 15.9 60.7 55 7 44.6
23:35 1020 30.12 849 25.07 16 60.7 55 7.1 44.8
23:40 1020 30.12 849 25.07 15.7 60.2 57 7.2 45
23:45 1020 30.12 849 25.07 15.2 59.4 59 7.3 45.2
23:50 1020 30.12 849 25.07 15 59.1 59 7.3 45.1
23:55 1020 30.12 849 25.07 15 58.9 59 7.1 44.9
24:00 1020 30.12 849 25.07 14.9 58.7 60 7.2 45